KCFV/CFV METAR and TAF weather

Enter ICAO airport designator
Station Type Date Time Source
KCFV METAR 2020/09/24 12:06 UTC NOAA

KCFV 241206Z AUTO 00000KT 1SM BR VV002 13/12 A2996 RMK AO2 T01280122


Station Type Date Time Source
KCFV Decoded METAR 2020/09/24 12:06 UTC NOAA

COFFEYVILLE MUNICIPAL AIRPORT , KS, United States (KCFV) 37-05N 95-34W 225M
Sep 24, 2020 - 08:06 AM EDT / 2020.09.24 1206 UTC
Wind: Calm:0
Visibility: 1 mile(s):0
Sky conditions: obscured
Weather: mist
Temperature: 55.0 F (12.8 C)
Dew Point: 54.0 F (12.2 C)
Relative Humidity: 96%
Pressure (altimeter): 29.96 in. Hg (1014 hPa)
ob: KCFV 241206Z AUTO 00000KT 1SM BR VV002 13/12 A2996 RMK AO2 T01280122
cycle: 12

Station Type Date Time Source
KCFV TAF UTC NOAA

Error!

Example: see airport list